Flight Track Log - Related Links

Times and Time Zones

All times are in EDT time to prevent confusion due to time zone crossing. See the SWA2169 flight status page for this flight to view local times or setup timezone preferences in your user account.

Time Position Orientation Groundspeed Altitude Reporting Facility
EDT Latitude Longitude Course Direction KTS MPH feet Rate Location/Type
Fri 12:13:31 PM 38.6333 -121.5333 123° Southeast 218 251 3,300  Level Northern Cal TRACON
Fri 12:15:54 PM 38.5428 -121.3456 122° Southeast 284 327 10,700 2,971 Climbing Oakland Center
Fri 12:16:55 PM 38.4944 -121.2436 121° Southeast 332 382 13,400 2,829 Climbing Oakland Center
Fri 12:17:57 PM 38.4456 -121.1381 121° Southeast 354 407 16,500 2,878 Climbing Oakland Center
Fri 12:18:58 PM 38.3917 -121.0231 121° Southeast 375 432 19,300 2,976 Climbing Oakland Center
Fri 12:20:00 PM 38.3214 -120.8758 121° Southeast 400 460 22,600 2,390 Climbing Oakland Center
Fri 12:21:01 PM 38.2614 -120.7500 121° Southeast 413 475 24,200 1,902 Climbing Oakland Center
Fri 12:22:03 PM 38.1850 -120.6375 131° Southeast 418 481 26,500 2,226 Climbing Oakland Center
Fri 12:23:05 PM 38.0875 -120.5444 143° Southeast 431 496 28,800 1,854 Climbing Oakland Center
Fri 12:24:06 PM 37.9897 -120.4489 142° Southeast 440 506 30,300 1,415 Climbing Oakland Center
Fri 12:25:08 PM 37.8878 -120.3506 143° Southeast 455 524 31,700 1,610 Climbing Oakland Center
Fri 12:26:09 PM 37.7856 -120.2486 142° Southeast 467 537 33,600 1,707 Climbing Oakland Center
Fri 12:27:11 PM 37.6808 -120.1483 143° Southeast 469 540 35,200 1,610 Climbing Oakland Center
Fri 12:28:12 PM 37.5561 -120.0275 142° Southeast 470 541 36,900 878 Climbing Oakland Center
Fri 12:29:14 PM 37.4422 -119.9467 151° Southeast 473 544 37,000 439 Climbing Oakland Center
Fri 12:30:15 PM 37.3156 -119.9147 169° South 467 537 37,800 976 Climbing Oakland Center
Fri 12:31:17 PM 37.1883 -119.8867 170° South 466 536 39,000 581 Climbing Oakland Center
Fri 12:32:19 PM 37.0561 -119.8583 170° South 465 535 39,000  Level Oakland Center
Fri 12:33:20 PM 36.9300 -119.8281 169° South 464 534 39,000  Level Oakland Center
Fri 12:34:22 PM 36.8028 -119.8014 170° South 464 534 39,000  Level Oakland Center
Fri 12:35:23 PM 36.6769 -119.7711 169° South 464 534 39,000  Level Oakland Center
Fri 12:36:25 PM 36.5500 -119.7422 170° South 463 533 39,000  Level Oakland Center
Fri 12:37:26 PM 36.4233 -119.7136 170° South 463 533 39,000  Level Oakland Center
Fri 12:38:28 PM 36.2711 -119.6800 170° South 462 532 39,000  Level Oakland Center
Fri 12:39:30 PM 36.1439 -119.6517 170° South 462 532 39,000  Level Oakland Center
Fri 12:40:31 PM 36.0167 -119.6239 170° South 463 533 39,000  Level Oakland Center
Fri 12:41:33 PM 35.8875 -119.6194 178° South 467 537 39,000  Level Oakland Center
Fri 12:42:34 PM 35.7583 -119.6239 182° South 466 536 39,000  Level Oakland Center
Fri 12:43:36 PM 35.6286 -119.6294 182° South 466 536 39,000  Level Oakland Center
Fri 12:44:28 PM 35.5236 -119.6333 182° South 466 536 39,000  Level Los Angeles Center
Fri 12:45:30 PM 35.3678 -119.6383 181° South 465 535 39,000  Level Los Angeles Center
Fri 12:46:32 PM 35.2403 -119.6225 174° South 469 540 39,000  Level Los Angeles Center
Fri 12:47:34 PM 35.1328 -119.5350 146° Southeast 465 535 39,000  Level Los Angeles Center
Fri 12:48:37 PM 35.0272 -119.4444 145° Southeast 465 535 39,000 -48 Level Los Angeles Center
Fri 12:49:39 PM 34.9203 -119.3553 146° Southeast 465 535 38,900 -1,500 Descending Los Angeles Center
Fri 12:50:41 PM 34.8144 -119.2633 144° Southeast 465 535 35,900 -3,145 Descending Los Angeles Center
Fri 12:51:43 PM 34.6836 -119.1528 145° Southeast 474 545 32,400 -3,387 Descending Los Angeles Center
Fri 12:52:45 PM 34.5697 -119.0622 147° Southeast 474 545 28,900 -3,000 Descending Los Angeles Center
Fri 12:53:47 PM 34.4633 -118.9711 145° Southeast 473 544 26,200 -2,710 Descending Los Angeles Center
Fri 12:54:49 PM 34.3575 -118.8847 146° Southeast 464 534 23,300 -2,516 Descending Los Angeles Center
Fri 12:55:51 PM 34.2436 -118.8403 162° South 429 494 21,000 -2,112 Descending Los Angeles Center
Fri 12:56:54 PM 34.1342 -118.7997 163° South 411 473 18,900 -2,208 Descending Los Angeles Center
Fri 12:57:56 PM 34.0094 -118.7533 163° South 398 458 16,400 -2,274 Descending Los Angeles Center
Fri 12:58:58 PM 33.9106 -118.7167 163° South 379 436 14,200 -1,161 Descending Los Angeles Center
Fri 01:00:00 PM 33.8142 -118.6833 164° South 363 418 14,000 -484 Descending Los Angeles Center
Fri 01:01:02 PM 33.7208 -118.6492 163° South 358 412 13,200 -1,500 Descending Los Angeles Center
Fri 01:02:04 PM 33.6492 -118.5850 143° Southeast 339 390 10,900 -2,032 Descending Los Angeles Center
Fri 01:03:06 PM 33.5925 -118.4839 124° Southeast 306 352 9,000 -1,776 Descending Los Angeles Center
Fri 01:04:09 PM 33.5489 -118.4083 125° Southeast 284 327 7,200 -1,728 Descending Los Angeles Center
Fri 01:05:11 PM 33.5211 -118.3258 112° Southeast 281 323 5,400 -1,065 Descending Los Angeles Center
Fri 01:06:13 PM 33.5439 -118.2494 70° East 267 307 5,000 -194 Descending Los Angeles Center
Fri 01:07:15 PM 33.5911 -118.1764 52° Northeast 244 281 5,000  Level Los Angeles Center
Fri 01:08:17 PM 33.6300 -118.1164 52° Northeast 235 270 5,000  Level Los Angeles Center
Fri 01:09:19 PM 33.6686 -118.0553 53° Northeast 234 269 5,000  Level Los Angeles Center
Fri 01:10:21 PM 33.7075 -117.9950 52° Northeast 234 269 5,000 -192 Level Los Angeles Center
Fri 01:11:24 PM 33.7467 -117.9347 52° Northeast 232 267 4,600 -720 Descending Los Angeles Center
Fri 01:12:26 PM 33.7950 -117.8692 48° Northeast 223 257 3,500 -968 Descending Los Angeles Center
Fri 01:13:28 PM 33.7894 -117.8169 97° East 181 208 2,600 -871 Descending Los Angeles Center
Fri 01:14:30 PM 33.7500 -117.8219 186° South 175 201 1,700 -871 Descending Los Angeles Center
Fri 01:15:32 PM 33.7153 -117.8436 207° Southwest 155 178 800 -774 Descending Los Angeles Center
Fri 01:16:34 PM 33.6833 -117.8631 207° Southwest 141 162 100 -677 Descending Los Angeles Center

Login

Don't have an account? Register now (free) for customized features, flight alerts, and more!